MHRO

Details ICAO MHRO (RTB)
Name Roatan
Region Honduras
Timezone Unknown
Plans Departing 233
Arriving 290
Stats Elevation 18 ft / 5 m (AMSL)
Location 16.316600° -86.523400°
Runways 1
Magnetic Variation 1.894° W
Sunrise 2021-06-15 11:15:09 UTC / 2021-06-15 11:15:09 Local
Sunset 2021-06-16 00:20:48 UTC / 2021-06-16 00:20:48 Local
Advertisement - Login to hide

Runways

ID Width Length Bearing (true/mag) Surface Threshold Overrun Markings Lighting
07 148 ft / 45 m 7,672 ft / 2,338 m 65.02° / 66.91° ASPHALT 518 ft / 158 m 0 ft / 0 m PREC-APP EDGE THRESHOLD
25 148 ft / 45 m 7,672 ft / 2,338 m 245.02° / 246.92° ASPHALT 0 ft / 0 m 0 ft / 0 m PREC-APP EDGE THRESHOLD

Map

Weather


0- 5 10 15 20 25 30 35+ Temperature / °C

Clouds and Precipitation
Forecast for 2021-06-15 12:00 UTC. Updated 6 hours ago

Ground ~20,000 ft ~40,000 ft Winds

METAR

MHRO 151500Z 09010KT 9999 FEW022 SCT080 30/25 Q1013 A2992 NOSIG

TAF

TAF TAF MHRO 151130Z 1512/1612 24010KT 9999 FEW024CB SCT080 TX30/1519Z TN27/1612Z BECMG 1516/1518 09014KT 8000 TSVCSH SCT024CB BKN080 BECMG 1521/1523 16014KT 9999 NSW FEW024CB

Frequencies

Ground 121.60 MHz Roatan Ground
Tower 118.10 MHz Roatan Tower
Warning: Do not use this data for real-world aviation or navigation. No guarantee of current accuracy is given.